Time;durP1;ratioP1;P1;durP2;ratioP2;P2;SDS_P1;SDS_P2;PMS_P1;PMS_P2;Temp;Humidity;BMP_temperature;BMP_pressure;BME280_temperature;BME280_humidity;BME280_pressure;Samples;Min_cycle;Max_cycle;Signal;HPM_P1;HPM_P2
2024/04/13 00:01:38;;;;;;;8.77;5.50;;;;;;;15.26;100.00;102687.78;5414618;26;20310;-66
2024/04/13 00:04:03;;;;;;;8.38;5.15;;;;;;;15.31;100.00;102692.94;5440832;26;20390;-64
2024/04/13 00:06:28;;;;;;;7.38;4.90;;;;;;;15.30;100.00;102693.84;5466623;26;20071;-66
2024/04/13 00:08:55;;;;;;;7.03;5.03;;;;;;;15.28;100.00;102695.63;5436842;26;19995;-65
2024/04/13 00:11:21;;;;;;;9.25;5.38;;;;;;;15.28;100.00;102700.91;5438441;26;20030;-65
2024/04/13 00:13:47;;;;;;;7.93;5.32;;;;;;;15.25;100.00;102687.81;5426344;26;20000;-65
2024/04/13 00:16:12;;;;;;;7.75;5.47;;;;;;;15.20;100.00;102692.31;5411594;26;20038;-65
2024/04/13 00:18:37;;;;;;;7.93;4.95;;;;;;;15.17;100.00;102694.13;5429535;26;20498;-66
2024/04/13 00:21:03;;;;;;;7.30;5.15;;;;;;;15.12;100.00;102680.19;5452511;26;20075;-61
2024/04/13 00:23:30;;;;;;;8.07;5.35;;;;;;;15.10;100.00;102686.38;5463821;26;19998;-64
2024/04/13 00:25:57;;;;;;;10.38;5.60;;;;;;;15.07;100.00;102682.03;5428741;26;20011;-63
2024/04/13 00:28:22;;;;;;;7.88;5.35;;;;;;;15.08;100.00;102689.03;5430382;26;20003;-63
2024/04/13 00:30:48;;;;;;;8.05;5.47;;;;;;;15.08;100.00;102691.66;5459545;26;20005;-64
2024/04/13 00:33:14;;;;;;;9.05;5.60;;;;;;;15.08;100.00;102683.78;5443222;26;20474;-63
2024/04/13 00:35:39;;;;;;;6.45;5.20;;;;;;;15.01;100.00;102671.66;5448698;26;20396;-64
2024/04/13 00:38:05;;;;;;;9.35;5.10;;;;;;;14.97;100.00;102664.75;5445275;26;20005;-65
2024/04/13 00:40:31;;;;;;;6.97;5.15;;;;;;;14.96;100.00;102666.50;5426749;26;20006;-63
2024/04/13 00:43:10;;;;;;;9.45;5.43;;;;;;;14.98;100.00;102666.47;5474341;26;19990;-62
2024/04/13 00:45:43;;;;;;;5.97;5.00;;;;;;;14.91;100.00;102670.09;5445092;26;20047;-64
2024/04/13 00:48:14;;;;;;;9.07;5.23;;;;;;;14.85;100.00;102662.34;5419310;26;20006;-64
2024/04/13 00:50:47;;;;;;;7.03;5.68;;;;;;;14.82;100.00;102666.81;5439691;26;20452;-63
2024/04/13 00:53:16;;;;;;;7.03;5.37;;;;;;;14.80;100.00;102665.94;5446472;26;20693;-63
2024/04/13 00:55:46;;;;;;;6.78;5.07;;;;;;;14.77;100.00;102663.38;5428558;26;20013;-65
2024/04/13 00:58:11;;;;;;;9.55;5.45;;;;;;;14.72;100.00;102665.22;5438657;26;19999;-65
2024/04/13 01:00:39;;;;;;;8.65;5.40;;;;;;;14.68;100.00;102662.72;5436581;26;20102;-65
2024/04/13 01:03:04;;;;;;;6.50;5.20;;;;;;;14.67;100.00;102667.09;5436941;26;20434;-64
2024/04/13 01:05:31;;;;;;;9.32;5.28;;;;;;;14.65;100.00;102663.63;5395174;26;20039;-65
2024/04/13 01:07:57;;;;;;;9.43;5.60;;;;;;;14.62;100.00;102668.94;5455750;26;20010;-64
2024/04/13 01:10:23;;;;;;;7.70;4.85;;;;;;;14.62;100.00;102656.66;5452721;26;20323;-65
2024/04/13 01:12:49;;;;;;;7.40;5.13;;;;;;;14.60;100.00;102660.19;5436989;26;19998;-64
2024/04/13 01:15:17;;;;;;;9.85;5.25;;;;;;;14.59;100.00;102653.19;5431769;26;20128;-65
2024/04/13 01:17:43;;;;;;;7.50;5.15;;;;;;;14.56;100.00;102653.25;5428427;26;20013;-65
2024/04/13 01:20:10;;;;;;;11.93;5.93;;;;;;;14.54;100.00;102644.56;5453375;26;20563;-65
2024/04/13 01:22:45;;;;;;;10.40;5.10;;;;;;;14.53;100.00;102648.06;5456799;26;20334;-65
2024/04/13 01:25:15;;;;;;;8.98;5.40;;;;;;;14.49;100.00;102645.50;5378083;26;20061;-64
2024/04/13 01:27:41;;;;;;;6.85;5.28;;;;;;;14.46;100.00;102632.44;5438882;26;20322;-64
2024/04/13 01:30:11;;;;;;;9.98;5.45;;;;;;;14.46;100.00;102632.44;5449295;26;20005;-65
2024/04/13 01:32:38;;;;;;;8.70;5.68;;;;;;;14.45;100.00;102635.06;5435279;26;19999;-64
2024/04/13 01:35:13;;;;;;;9.48;5.47;;;;;;;14.45;100.00;102630.69;5424658;26;20013;-65
2024/04/13 01:37:41;;;;;;;11.63;6.05;;;;;;;14.42;100.00;102630.75;5441889;26;19998;-65
2024/04/13 01:40:08;;;;;;;10.57;5.78;;;;;;;14.39;100.00;102622.91;5441858;26;20459;-65
2024/04/13 01:42:34;;;;;;;8.85;6.13;;;;;;;14.41;100.00;102623.78;5435983;26;20417;-63
2024/04/13 01:45:00;;;;;;;9.88;5.65;;;;;;;14.38;100.00;102629.09;5447264;26;20008;-64
2024/04/13 01:47:25;;;;;;;10.75;6.45;;;;;;;14.34;100.00;102614.28;5436589;26;20007;-65
2024/04/13 01:49:50;;;;;;;9.15;6.20;;;;;;;14.37;100.00;102614.22;5425472;26;20296;-65
2024/04/13 01:52:16;;;;;;;9.25;6.15;;;;;;;14.38;100.00;102613.31;5434369;26;20071;-63
2024/04/13 01:54:41;;;;;;;8.75;5.65;;;;;;;14.39;100.00;102617.66;5452025;26;19998;-64
2024/04/13 01:57:07;;;;;;;11.18;6.38;;;;;;;14.39;100.00;102620.28;5450497;26;20017;-63
2024/04/13 01:59:32;;;;;;;10.05;6.25;;;;;;;14.39;100.00;102617.66;5442893;26;20013;-64
2024/04/13 02:01:58;;;;;;;10.35;6.10;;;;;;;14.39;100.00;102615.03;5458006;26;19994;-64
2024/04/13 02:04:23;;;;;;;10.68;6.70;;;;;;;14.41;100.00;102618.50;5442800;26;20455;-64
2024/04/13 02:06:49;;;;;;;11.38;6.55;;;;;;;14.43;100.00;102619.34;5459025;26;20006;-64
2024/04/13 02:09:15;;;;;;;9.13;6.70;;;;;;;14.41;100.00;102618.50;5429185;26;20008;-63
2024/04/13 02:11:41;;;;;;;12.25;7.10;;;;;;;14.40;100.00;102622.03;5443719;26;20014;-63
2024/04/13 02:14:06;;;;;;;11.32;6.72;;;;;;;14.40;100.00;102622.03;5442840;26;20068;-64
2024/04/13 02:16:31;;;;;;;12.15;7.22;;;;;;;14.40;100.00;102611.53;5435050;26;20528;-64
2024/04/13 02:18:57;;;;;;;11.98;6.80;;;;;;;14.40;100.00;102611.53;5431283;26;19998;-63
2024/04/13 02:21:24;;;;;;;8.88;7.05;;;;;;;14.39;100.00;102617.66;5444413;26;20033;-65
2024/04/13 02:23:49;;;;;;;10.80;6.82;;;;;;;14.35;100.00;102613.38;5407228;26;20002;-65
2024/04/13 02:26:15;;;;;;;10.68;6.55;;;;;;;14.35;100.00;102602.84;5426830;26;20006;-66
2024/04/13 02:28:40;;;;;;;8.77;7.25;;;;;;;14.35;100.00;102604.63;5454300;26;20013;-65
2024/04/13 02:31:06;;;;;;;11.88;7.32;;;;;;;14.33;100.00;102607.28;5452968;26;19995;-64
2024/04/13 02:33:32;;;;;;;8.20;6.70;;;;;;;14.31;100.00;102607.31;5451477;26;20460;-64
2024/04/13 02:36:02;;;;;;;12.15;7.20;;;;;;;14.32;100.00;102601.19;5457517;26;20009;-65
2024/04/13 02:38:28;;;;;;;10.60;7.57;;;;;;;14.31;100.00;102606.44;5448297;26;20011;-64
2024/04/13 02:40:58;;;;;;;11.68;6.95;;;;;;;14.30;100.00;102604.72;5437527;26;20013;-62
2024/04/13 02:43:24;;;;;;;9.93;7.25;;;;;;;14.26;100.00;102608.31;5448192;26;20255;-64
2024/04/13 02:45:49;;;;;;;10.57;6.88;;;;;;;14.24;100.00;102602.19;5473300;26;19998;-63
2024/04/13 02:48:14;;;;;;;11.05;6.95;;;;;;;14.25;100.00;102606.56;5445982;26;19995;-64
2024/04/13 02:50:40;;;;;;;10.25;6.82;;;;;;;14.24;100.00;102610.09;5433036;26;20018;-63
2024/04/13 02:53:05;;;;;;;10.75;7.22;;;;;;;14.22;100.00;102598.75;5447336;26;20061;-63
2024/04/13 02:55:30;;;;;;;11.43;6.90;;;;;;;14.24;100.00;102602.19;5428967;26;20003;-66
2024/04/13 02:57:56;;;;;;;11.93;7.30;;;;;;;14.21;100.00;102608.38;5417875;26;20009;-64
2024/04/13 03:00:21;;;;;;;10.45;7.07;;;;;;;14.18;100.00;102613.69;5426933;26;20000;-65
2024/04/13 03:02:49;;;;;;;9.60;7.05;;;;;;;14.18;100.00;102611.06;5442693;26;19998;-64
2024/04/13 03:05:15;;;;;;;10.90;6.88;;;;;;;14.18;100.00;102607.59;5444476;26;20054;-62
2024/04/13 03:07:40;;;;;;;10.25;7.03;;;;;;;14.20;100.00;102608.41;5436925;26;20464;-63
2024/04/13 03:10:06;;;;;;;9.77;7.10;;;;;;;14.19;100.00;102606.66;5440255;26;20309;-63
2024/04/13 03:12:32;;;;;;;8.90;7.28;;;;;;;14.15;100.00;102606.72;5456104;26;20691;-65
2024/04/13 03:14:58;;;;;;;13.15;7.70;;;;;;;14.15;100.00;102598.00;5440471;26;20064;-63
2024/04/13 03:17:24;;;;;;;10.90;7.10;;;;;;;14.14;100.00;102605.03;5430986;26;19995;-64
2024/04/13 03:19:52;;;;;;;12.18;7.47;;;;;;;14.17;100.00;102601.44;5442610;26;20002;-63
2024/04/13 03:22:19;;;;;;;11.43;7.13;;;;;;;14.20;100.00;102600.53;5447100;26;20014;-63
2024/04/13 03:24:44;;;;;;;10.50;7.45;;;;;;;14.23;100.00;102603.97;5441635;26;20010;-64
2024/04/13 03:27:10;;;;;;;9.48;7.35;;;;;;;14.22;100.00;102596.13;5456569;26;20013;-64
2024/04/13 03:29:36;;;;;;;10.52;6.78;;;;;;;14.22;100.00;102601.38;5472707;26;19994;-64
2024/04/13 03:32:01;;;;;;;10.50;7.28;;;;;;;14.22;100.00;102599.59;5437280;26;20630;-63
2024/04/13 03:34:27;;;;;;;11.68;7.90;;;;;;;14.21;100.00;102599.63;5420842;26;20075;-64
2024/04/13 03:36:54;;;;;;;10.75;7.82;;;;;;;14.27;100.00;102604.75;5437596;26;20361;-66
2024/04/13 03:39:22;;;;;;;11.10;7.63;;;;;;;14.31;100.00;102609.94;5428086;26;20073;-65
2024/04/13 03:41:48;;;;;;;11.18;7.10;;;;;;;14.33;100.00;102615.16;5464654;26;20076;-64
2024/04/13 03:44:13;;;;;;;11.93;7.28;;;;;;;14.34;100.00;102606.41;5410001;26;20003;-63
2024/04/13 03:46:39;;;;;;;10.35;7.13;;;;;;;14.32;100.00;102595.94;5432080;26;20336;-66
2024/04/13 03:49:04;;;;;;;12.65;7.70;;;;;;;14.30;100.00;102610.84;5427412;26;20148;-65
2024/04/13 03:51:30;;;;;;;9.77;7.18;;;;;;;14.31;100.00;102601.19;5443485;26;20013;-64
2024/04/13 03:53:56;;;;;;;10.48;7.70;;;;;;;14.29;100.00;102605.63;5447946;26;19999;-64
2024/04/13 03:56:22;;;;;;;9.80;7.70;;;;;;;14.31;100.00;102606.44;5404045;26;20400;-64
2024/04/13 03:58:47;;;;;;;10.73;7.30;;;;;;;14.34;100.00;102601.16;5385875;26;20096;-65
2024/04/13 04:01:12;;;;;;;12.25;7.80;;;;;;;14.32;100.00;102609.06;5401751;26;20081;-65
2024/04/13 04:03:38;;;;;;;11.50;7.20;;;;;;;14.36;100.00;102604.59;5433534;26;20102;-65
2024/04/13 04:06:05;;;;;;;8.70;6.88;;;;;;;14.35;100.00;102607.25;5427142;26;20935;-64
2024/04/13 04:08:31;;;;;;;10.98;7.45;;;;;;;14.37;100.00;102606.34;5454895;26;20002;-63
2024/04/13 04:10:56;;;;;;;13.98;7.38;;;;;;;14.35;100.00;102602.84;5461878;26;19998;-63
2024/04/13 04:13:23;;;;;;;9.10;6.80;;;;;;;14.38;100.00;102610.69;5475782;26;20277;-63
2024/04/13 04:15:52;;;;;;;11.95;7.05;;;;;;;14.37;100.00;102606.34;5436663;26;20070;-62
2024/04/13 04:18:18;;;;;;;10.13;7.38;;;;;;;14.34;100.00;102598.53;5432125;26;20332;-63
2024/04/13 04:20:46;;;;;;;8.73;6.82;;;;;;;14.34;100.00;102598.53;5459074;26;20451;-63
2024/04/13 04:23:12;;;;;;;13.98;8.13;;;;;;;14.32;100.00;102602.91;5459036;26;19999;-64
2024/04/13 04:25:39;;;;;;;11.35;8.20;;;;;;;14.28;100.00;102589.00;5438282;26;20019;-65
2024/04/13 04:28:05;;;;;;;13.00;8.05;;;;;;;14.26;100.00;102596.03;5430160;26;19991;-64
2024/04/13 04:30:30;;;;;;;10.30;7.20;;;;;;;14.26;100.00;102603.06;5432473;26;20437;-64
2024/04/13 04:32:56;;;;;;;10.77;7.63;;;;;;;14.29;100.00;102601.22;5405052;26;20025;-65
2024/04/13 04:35:21;;;;;;;9.93;7.75;;;;;;;14.33;100.00;102604.66;5429557;26;19999;-65
2024/04/13 04:37:47;;;;;;;9.75;7.63;;;;;;;14.31;100.00;102607.31;5437876;26;20447;-64
2024/04/13 04:40:12;;;;;;;11.85;7.60;;;;;;;14.26;100.00;102603.06;5428699;26;19999;-63
2024/04/13 04:42:38;;;;;;;11.73;7.72;;;;;;;14.24;100.00;102600.47;5441408;26;20005;-62
2024/04/13 04:45:07;;;;;;;10.98;8.05;;;;;;;14.21;100.00;102602.25;5457611;26;19994;-64
2024/04/13 04:47:33;;;;;;;10.55;7.93;;;;;;;14.13;100.00;102598.03;5425909;26;20036;-63
2024/04/13 04:49:59;;;;;;;11.98;8.25;;;;;;;14.10;100.00;102599.84;5433025;26;19998;-63
2024/04/13 04:52:24;;;;;;;11.70;8.32;;;;;;;14.05;100.00;102594.69;5438183;26;20003;-63
2024/04/13 04:54:50;;;;;;;12.68;8.15;;;;;;;14.01;100.00;102593.00;5408078;26;20077;-63
2024/04/13 04:57:15;;;;;;;12.65;8.75;;;;;;;14.00;100.00;102596.50;5381617;26;20007;-63
2024/04/13 04:59:40;;;;;;;13.70;7.97;;;;;;;14.00;100.00;102591.25;5465593;26;20006;-62
2024/04/13 05:02:05;;;;;;;14.13;8.20;;;;;;;13.94;100.00;102587.00;5426407;26;20279;-64
2024/04/13 05:04:31;;;;;;;12.43;8.00;;;;;;;13.95;100.00;102590.47;5452918;26;20009;-63
2024/04/13 05:06:57;;;;;;;13.13;7.90;;;;;;;13.94;100.00;102589.63;5461789;26;20010;-63
2024/04/13 05:09:22;;;;;;;13.77;8.15;;;;;;;13.90;100.00;102584.47;5450478;26;20064;-63
2024/04/13 05:11:48;;;;;;;13.32;8.23;;;;;;;13.91;100.00;102591.41;5432346;26;19999;-63
2024/04/13 05:14:17;;;;;;;14.98;8.68;;;;;;;13.90;100.00;102581.84;5433719;26;20551;-64
2024/04/13 05:16:42;;;;;;;11.63;7.97;;;;;;;13.88;100.00;102586.22;5454661;26;20000;-63
2024/04/13 05:19:08;;;;;;;13.88;8.20;;;;;;;13.85;100.00;102575.78;5433546;26;20013;-62
2024/04/13 05:21:33;;;;;;;12.20;7.70;;;;;;;13.88;100.00;102580.97;5443429;26;20011;-63
2024/04/13 05:23:59;;;;;;;12.43;8.00;;;;;;;13.90;100.00;102582.69;5452665;26;20457;-64
2024/04/13 05:26:25;;;;;;;12.90;8.32;;;;;;;13.91;100.00;102580.91;5451063;26;20027;-63
2024/04/13 05:28:50;;;;;;;12.45;8.18;;;;;;;13.91;100.00;102578.28;5437447;26;20043;-64
2024/04/13 05:31:16;;;;;;;13.13;8.52;;;;;;;13.88;100.00;102578.34;5445878;26;20082;-63
2024/04/13 05:33:44;;;;;;;11.43;7.82;;;;;;;13.90;100.00;102577.44;5443289;26;20421;-65
2024/04/13 05:36:09;;;;;;;10.32;7.35;;;;;;;13.91;100.00;102562.53;5462082;26;20006;-65
2024/04/13 05:38:34;;;;;;;13.02;7.97;;;;;;;13.91;100.00;102566.06;5433215;26;19994;-62
2024/04/13 05:41:00;;;;;;;11.45;7.95;;;;;;;13.91;100.00;102570.41;5436189;26;20331;-64
2024/04/13 05:43:25;;;;;;;12.27;7.95;;;;;;;13.92;100.00;102577.41;5460794;26;20425;-64
2024/04/13 05:45:51;;;;;;;14.05;8.80;;;;;;;13.90;100.00;102568.72;5437012;26;20332;-63
2024/04/13 05:48:19;;;;;;;10.75;8.10;;;;;;;13.92;100.00;102569.53;5430619;26;20359;-63
2024/04/13 05:50:53;;;;;;;12.35;8.20;;;;;;;13.92;100.00;102573.03;5424205;26;20013;-65
2024/04/13 05:53:19;;;;;;;14.45;7.88;;;;;;;13.93;100.00;102568.66;5413362;26;20011;-64
2024/04/13 05:55:44;;;;;;;12.68;7.93;;;;;;;13.95;100.00;102572.09;5434458;26;20005;-65
2024/04/13 05:58:10;;;;;;;12.10;8.38;;;;;;;13.99;100.00;102563.25;5433167;26;20314;-63
2024/04/13 06:00:35;;;;;;;10.43;7.97;;;;;;;13.99;100.00;102558.00;5436077;26;20028;-63
2024/04/13 06:03:01;;;;;;;11.63;8.38;;;;;;;14.03;100.00;102558.84;5429332;26;20009;-66
2024/04/13 06:05:27;;;;;;;12.32;8.07;;;;;;;14.06;100.00;102564.91;5438940;26;19999;-63
2024/04/13 06:07:52;;;;;;;11.52;8.07;;;;;;;14.07;100.00;102566.63;5453371;26;20485;-62
2024/04/13 06:10:18;;;;;;;13.98;8.50;;;;;;;14.09;100.00;102564.84;5401853;26;20052;-63
2024/04/13 06:12:43;;;;;;;11.40;8.23;;;;;;;14.10;100.00;102570.94;5453243;26;20364;-63
2024/04/13 06:15:09;;;;;;;12.98;8.20;;;;;;;14.09;100.00;102574.47;5437058;26;19999;-64
2024/04/13 06:17:35;;;;;;;14.07;8.07;;;;;;;14.10;100.00;102570.94;5426076;26;20000;-63
2024/04/13 06:20:01;;;;;;;13.18;8.43;;;;;;;14.12;100.00;102567.41;5452569;26;19998;-64
2024/04/13 06:22:26;;;;;;;13.52;8.77;;;;;;;14.17;100.00;102569.06;5459519;26;20050;-63
2024/04/13 06:24:52;;;;;;;13.73;8.77;;;;;;;14.17;100.00;102566.44;5447337;26;19996;-63
2024/04/13 06:27:18;;;;;;;13.13;8.82;;;;;;;14.21;100.00;102562.88;5428553;26;20049;-63
2024/04/13 06:29:51;;;;;;;14.35;8.68;;;;;;;14.26;100.00;102566.28;5455598;26;19998;-63
2024/04/13 06:32:17;;;;;;;13.07;8.80;;;;;;;14.27;100.00;102568.00;5416500;26;20003;-64
2024/04/13 06:34:43;;;;;;;14.95;8.95;;;;;;;14.29;100.00;102566.22;5432503;26;20064;-64
2024/04/13 06:37:08;;;;;;;15.32;8.27;;;;;;;14.31;100.00;102559.16;5421881;26;20003;-63
2024/04/13 06:39:33;;;;;;;12.57;8.57;;;;;;;14.32;100.00;102559.16;5434874;26;20378;-65
2024/04/13 06:41:58;;;;;;;13.27;8.75;;;;;;;14.38;100.00;102560.78;5436597;26;20013;-63
2024/04/13 06:44:24;;;;;;;15.63;8.85;;;;;;;14.40;100.00;102556.34;5452921;26;20003;-65
2024/04/13 06:46:52;;;;;;;11.93;8.23;;;;;;;14.41;100.00;102558.09;5374104;26;20514;-65
2024/04/13 06:49:19;;;;;;;12.32;8.15;;;;;;;14.41;100.00;102552.84;5431911;26;20007;-64
2024/04/13 06:51:44;;;;;;;12.40;8.40;;;;;;;14.43;100.00;102558.06;5433656;26;19994;-63
2024/04/13 06:54:10;;;;;;;12.27;7.97;;;;;;;14.46;100.00;102553.63;5439026;26;19999;-64
2024/04/13 06:56:35;;;;;;;11.20;8.35;;;;;;;14.48;100.00;102557.06;5435975;26;19999;-64
2024/04/13 06:59:00;;;;;;;11.15;8.65;;;;;;;14.49;100.00;102557.91;5436898;26;20040;-63
2024/04/13 07:01:27;;;;;;;15.30;9.02;;;;;;;14.51;100.00;102545.63;5433283;26;20544;-63
2024/04/13 07:03:56;;;;;;;13.82;8.45;;;;;;;14.54;100.00;102539.44;5431473;26;20006;-65
2024/04/13 07:06:22;;;;;;;12.82;8.30;;;;;;;14.54;100.00;102540.31;5435405;26;20003;-63
2024/04/13 07:08:48;;;;;;;12.13;8.48;;;;;;;14.57;100.00;102536.75;5437253;26;20014;-63
2024/04/13 07:11:14;;;;;;;14.05;8.75;;;;;;;14.60;100.00;102540.19;5434264;26;20072;-63
2024/04/13 07:13:40;;;;;;;11.38;8.80;;;;;;;14.64;100.00;102536.63;5436402;26;20003;-65
2024/04/13 07:16:05;;;;;;;13.68;8.35;;;;;;;14.70;100.00;102546.13;5404131;26;20782;-64
2024/04/13 07:18:32;;;;;;;13.60;9.15;;;;;;;14.75;100.00;102548.66;5399466;26;20681;-63
2024/04/13 07:20:58;;;;;;;13.98;9.38;;;;;;;14.78;100.00;102544.22;5432359;26;20004;-63
2024/04/13 07:23:23;;;;;;;11.63;8.45;;;;;;;14.82;100.00;102551.13;5436761;26;20344;-63
2024/04/13 07:26:04;;;;;;;11.27;8.20;;;;;;;14.87;100.00;102539.63;5434343;26;20445;-65
2024/04/13 07:28:31;;;;;;;11.70;8.25;;;;;;;14.91;100.00;102536.03;5437592;26;19999;-64
2024/04/13 07:30:58;;;;;;;12.85;8.65;;;;;;;14.97;100.00;102534.13;5436685;26;19999;-65
2024/04/13 07:33:23;;;;;;;10.68;8.23;;;;;;;15.04;100.00;102526.97;5433260;26;20010;-66
2024/04/13 07:35:49;;;;;;;11.48;8.15;;;;;;;15.10;100.00;102516.31;5436227;26;20010;-63
2024/04/13 07:38:14;;;;;;;13.23;8.57;;;;;;;15.13;100.00;102513.59;5433807;26;20013;-63
2024/04/13 07:40:40;;;;;;;10.85;8.00;;;;;;;15.15;100.00;102516.19;5424017;26;19995;-65
2024/04/13 07:43:05;;;;;;;11.80;7.75;;;;;;;15.18;100.00;102516.09;5389676;26;20004;-64
2024/04/13 07:45:31;;;;;;;14.32;7.75;;;;;;;15.17;100.00;102512.63;5424664;26;20006;-64
2024/04/13 07:47:56;;;;;;;11.85;7.63;;;;;;;15.23;100.00;102515.97;5421297;26;20015;-65
2024/04/13 07:50:22;;;;;;;10.23;7.15;;;;;;;15.32;100.00;102513.13;5434516;26;20002;-64
2024/04/13 07:52:48;;;;;;;10.32;7.28;;;;;;;15.29;100.00;102502.69;5465845;26;20002;-63
2024/04/13 07:55:13;;;;;;;11.77;7.47;;;;;;;15.34;100.00;102506.94;5473217;26;20464;-64
2024/04/13 07:57:39;;;;;;;9.68;6.93;;;;;;;15.38;100.00;102502.47;5441957;26;20523;-64
2024/04/13 08:00:06;;;;;;;9.38;7.10;;;;;;;15.42;100.00;102498.84;5436158;26;19998;-63
2024/04/13 08:02:31;;;;;;;11.63;7.38;;;;;;;15.47;100.00;102502.22;5451318;26;19999;-64
2024/04/13 08:04:56;;;;;;;12.05;6.90;;;;;;;15.51;100.00;102503.88;5431664;26;20555;-64
2024/04/13 08:07:22;;;;;;;9.27;7.03;;;;;;;15.56;100.00;102505.50;5416191;26;19999;-65
2024/04/13 08:09:47;;;;;;;11.63;7.07;;;;;;;15.59;100.00;102503.69;5409828;26;19995;-64
2024/04/13 08:12:13;;;;;;;10.65;6.68;;;;;;;15.65;100.00;102502.66;5404995;26;20050;-64
2024/04/13 08:14:38;;;;;;;10.10;6.57;;;;;;;15.72;100.00;102496.31;5432466;26;20014;-65
2024/04/13 08:17:04;;;;;;;12.60;7.10;;;;;;;15.78;100.00;102493.53;5426496;26;20462;-65
2024/04/13 08:19:29;;;;;;;10.95;6.85;;;;;;;15.88;100.00;102485.38;5429987;26;20390;-64
2024/04/13 08:21:54;;;;;;;10.88;6.95;;;;;;;15.93;100.00;102499.31;5451373;26;20013;-65
2024/04/13 08:24:20;;;;;;;10.35;7.00;;;;;;;16.01;100.00;102500.81;5432473;26;20012;-65
2024/04/13 08:26:45;;;;;;;11.52;6.72;;;;;;;16.11;100.00;102501.41;5430873;26;20072;-64
2024/04/13 08:29:11;;;;;;;11.75;6.85;;;;;;;16.20;100.00;102495.03;5395499;26;20002;-63
2024/04/13 08:31:37;;;;;;;9.15;6.15;;;;;;;16.30;100.00;102498.25;5450237;26;19991;-63
2024/04/13 08:34:03;;;;;;;13.27;6.10;;;;;;;16.34;100.00;102494.63;5430425;26;20334;-64
2024/04/13 08:36:28;;;;;;;10.02;5.75;;;;;;;16.41;100.00;102492.63;5431000;26;19999;-63
2024/04/13 08:38:55;;;;;;;9.27;6.57;;;;;;;16.48;100.00;102497.69;5461540;26;20159;-63
2024/04/13 08:41:35;;;;;;;10.95;6.22;;;;;;;16.57;100.00;102490.41;5472339;26;20058;-64
2024/04/13 08:44:00;;;;;;;9.15;6.30;;;;;;;16.60;100.00;102485.03;5437436;26;20282;-64
2024/04/13 08:46:26;;;;;;;11.15;6.03;;;;;;;16.66;100.00;102490.16;5448996;26;20443;-64
2024/04/13 08:48:52;;;;;;;8.25;6.18;;;;;;;16.69;100.00;102475.06;5433285;26;20027;-64
2024/04/13 08:51:18;;;;;;;11.57;6.20;;;;;;;16.76;100.00;102481.03;5420538;26;19999;-65
2024/04/13 08:53:47;;;;;;;9.35;5.78;;;;;;;16.81;100.00;102467.69;5433050;26;20002;-65
2024/04/13 08:56:14;;;;;;;8.25;5.78;;;;;;;16.88;100.00;102479.78;5459968;26;20014;-63
2024/04/13 08:58:41;;;;;;;8.93;5.97;;;;;;;16.97;100.00;102463.66;5456947;26;20008;-64
2024/04/13 09:01:15;;;;;;;10.30;5.68;;;;;;;17.08;100.00;102465.97;5426482;26;20456;-65
2024/04/13 09:03:42;;;;;;;7.90;5.55;;;;;;;17.17;100.00;102463.03;5433323;26;20547;-64
2024/04/13 09:06:09;;;;;;;8.60;6.03;;;;;;;17.24;100.00;102460.16;5433850;26;20570;-64
2024/04/13 09:08:37;;;;;;;12.93;5.80;;;;;;;17.25;100.00;102454.81;5431087;26;19992;-65
2024/04/13 09:11:05;;;;;;;8.00;5.10;;;;;;;17.33;100.00;102451.94;5423125;26;20079;-62
2024/04/13 09:13:33;;;;;;;7.47;5.18;;;;;;;17.38;100.00;102447.38;5454447;26;19998;-64
2024/04/13 09:15:59;;;;;;;8.25;5.50;;;;;;;17.41;100.00;102446.38;5436757;26;20026;-64
2024/04/13 09:18:24;;;;;;;10.30;5.68;;;;;;;17.49;100.00;102439.94;5414698;26;20013;-62
2024/04/13 09:20:50;;;;;;;9.23;5.45;;;;;;;17.57;100.00;102438.78;5422118;26;20094;-62
2024/04/13 09:23:17;;;;;;;9.43;5.32;;;;;;;17.67;100.00;102437.53;5392550;26;20006;-61
2024/04/13 09:25:43;;;;;;;8.57;5.35;;;;;;;17.74;100.00;102433.78;5431143;26;20705;-63
2024/04/13 09:28:08;;;;;;;8.02;5.28;;;;;;;17.80;100.00;102430.91;5452962;26;20051;-64
2024/04/13 09:30:34;;;;;;;8.32;5.13;;;;;;;17.86;100.00;102433.28;5441447;26;20413;-62
2024/04/13 09:33:03;;;;;;;7.63;5.35;;;;;;;17.96;100.00;102433.00;5433351;26;20485;-64
2024/04/13 09:35:29;;;;;;;9.10;5.20;;;;;;;18.04;100.00;102426.50;5452863;26;20009;-64
2024/04/13 09:37:58;;;;;;;8.73;5.32;;;;;;;18.07;100.00;102425.50;5439687;26;19995;-63
2024/04/13 09:40:24;;;;;;;7.32;4.95;;;;;;;18.19;100.00;102417.13;5438744;26;19999;-63
2024/04/13 09:42:49;;;;;;;10.43;5.32;;;;;;;18.23;99.30;102420.50;5438208;26;20035;-63
2024/04/13 09:45:15;;;;;;;7.70;4.55;;;;;;;18.26;100.00;102423.03;5437887;26;20068;-62
2024/04/13 09:47:40;;;;;;;8.55;4.50;;;;;;;18.32;100.00;102404.28;5391797;26;20281;-63
2024/04/13 09:50:06;;;;;;;8.07;4.43;;;;;;;18.35;98.27;102409.47;5442905;26;20002;-64
2024/04/13 09:52:34;;;;;;;6.45;4.68;;;;;;;18.45;99.15;102406.44;5458573;26;19994;-63
2024/04/13 09:55:00;;;;;;;7.53;4.78;;;;;;;18.53;99.09;102396.41;5454742;26;20321;-63
2024/04/13 09:57:26;;;;;;;7.35;3.80;;;;;;;18.61;98.39;102396.13;5446993;26;20567;-63
2024/04/13 09:59:52;;;;;;;7.05;4.13;;;;;;;18.69;96.18;102391.38;5439006;26;19995;-64
2024/04/13 10:02:21;;;;;;;6.53;3.70;;;;;;;18.78;94.76;102385.72;5452243;26;19994;-63
2024/04/13 10:04:47;;;;;;;8.55;4.38;;;;;;;18.86;96.19;102386.22;5402893;26;19999;-62
2024/04/13 10:07:14;;;;;;;6.47;3.97;;;;;;;18.97;95.33;102382.31;5444013;26;20369;-63
2024/04/13 10:09:41;;;;;;;8.00;4.10;;;;;;;19.00;93.45;102390.09;5439359;26;19999;-62
2024/04/13 10:12:12;;;;;;;7.30;3.95;;;;;;;19.09;94.79;102381.78;5434634;26;20006;-64
2024/04/13 10:14:41;;;;;;;5.32;3.70;;;;;;;19.19;93.75;102391.03;5452743;26;20010;-65
2024/04/13 10:17:09;;;;;;;6.68;3.55;;;;;;;19.30;92.92;102379.13;5437774;26;20118;-63
2024/04/13 10:19:35;;;;;;;6.68;3.50;;;;;;;19.40;93.65;102378.63;5436641;26;20062;-63
2024/04/13 10:22:01;;;;;;;5.07;3.53;;;;;;;19.44;90.09;102374.06;5438468;26;19998;-63
2024/04/13 10:24:32;;;;;;;5.50;3.65;;;;;;;19.52;87.58;102371.94;5443516;26;19995;-63
2024/04/13 10:27:11;;;;;;;7.03;3.80;;;;;;;19.55;88.77;102371.78;5436090;26;20002;-64
2024/04/13 10:29:40;;;;;;;5.95;3.00;;;;;;;19.63;88.02;102367.91;5455183;26;20018;-62
2024/04/13 10:32:21;;;;;;;4.47;2.88;;;;;;;19.69;86.15;102365.00;5413787;26;20493;-65
2024/04/13 10:34:46;;;;;;;6.50;3.13;;;;;;;19.75;84.90;102356.75;5438530;26;19991;-63
2024/04/13 10:37:30;;;;;;;5.90;3.17;;;;;;;19.80;85.51;102362.75;5453479;26;20013;-64
2024/04/13 10:40:01;;;;;;;5.90;3.00;;;;;;;19.88;85.58;102355.31;5404010;26;19995;-63
2024/04/13 10:42:42;;;;;;;5.47;2.53;;;;;;;19.96;83.01;102349.63;5455210;26;20003;-62
2024/04/13 10:45:15;;;;;;;5.50;2.53;;;;;;;19.98;84.94;102352.22;5443539;26;19994;-62
2024/04/13 10:47:41;;;;;;;5.03;2.70;;;;;;;20.06;83.67;102345.63;5431963;26;19999;-64
2024/04/13 10:50:15;;;;;;;2.97;2.17;;;;;;;20.09;81.73;102341.97;5448180;26;20277;-63
2024/04/13 10:52:43;;;;;;;;;;;;;;;20.12;84.17;102325.91;5454668;26;20006;-62
2024/04/13 10:55:13;;;;;;;3.53;2.20;;;;;;;20.24;83.65;102337.72;5439696;26;19925;-62
2024/04/13 10:57:40;;;;;;;3.38;2.33;;;;;;;20.26;78.36;102326.06;5452300;26;20440;-63
2024/04/13 11:00:08;;;;;;;4.03;2.55;;;;;;;20.23;77.79;102315.63;5436589;26;20002;-64
2024/04/13 11:02:36;;;;;;;3.20;2.42;;;;;;;20.27;77.14;102316.34;5405713;26;19991;-63
2024/04/13 11:05:01;;;;;;;5.72;2.55;;;;;;;20.25;77.71;102324.38;5428290;26;19991;-63
2024/04/13 11:07:27;;;;;;;4.68;2.60;;;;;;;20.30;76.95;102310.03;5436849;26;19995;-63
2024/04/13 11:09:52;;;;;;;2.85;2.20;;;;;;;20.39;79.72;102313.09;5434260;26;20003;-63
2024/04/13 11:12:18;;;;;;;4.47;2.65;;;;;;;20.44;76.50;102315.50;5429642;26;20333;-64